createdAt,value
2018-01-20T00:00:01.948Z,5.23
2018-01-20T00:02:29.534Z,4.10
2018-01-20T00:04:57.119Z,4.20
2018-01-20T00:07:25.580Z,6.03
2018-01-20T00:10:04.984Z,6.47
2018-01-20T00:12:32.594Z,5.53
2018-01-20T00:15:00.168Z,5.23
2018-01-20T00:17:28.532Z,6.67
2018-01-20T00:19:56.898Z,7.47
2018-01-20T00:22:24.505Z,4.07
2018-01-20T00:24:57.724Z,3.33
2018-01-20T00:27:25.325Z,5.00
2018-01-20T00:29:53.657Z,3.70
2018-01-20T00:32:21.265Z,4.43
2018-01-20T00:34:49.609Z,3.87
2018-01-20T00:37:17.197Z,3.77
2018-01-20T00:39:45.543Z,3.33
2018-01-20T00:42:13.175Z,4.67
2018-01-20T00:44:40.749Z,2.90
2018-01-20T00:47:08.350Z,2.97
2018-01-20T00:49:35.933Z,2.97
2018-01-20T00:52:04.288Z,6.17
2018-01-20T00:54:31.968Z,3.90
2018-01-20T00:57:00.331Z,3.27
2018-01-20T00:59:27.925Z,3.60
2018-01-20T01:01:55.506Z,4.17
2018-01-20T01:04:23.118Z,3.70
2018-01-20T01:06:51.454Z,2.93
2018-01-20T01:09:19.033Z,4.37
2018-01-20T01:11:46.631Z,2.90
2018-01-20T01:14:14.971Z,3.13
2018-01-20T01:16:42.574Z,5.13
2018-01-20T01:19:10.909Z,5.00
2018-01-20T01:21:38.484Z,4.87
2018-01-20T01:24:06.061Z,6.10
2018-01-20T01:26:34.395Z,4.53
2018-01-20T01:29:01.985Z,3.33
2018-01-20T01:31:29.552Z,6.23
2018-01-20T01:33:57.917Z,5.30
2018-01-20T01:36:25.511Z,3.73
2018-01-20T01:38:53.110Z,3.57
2018-01-20T01:41:20.782Z,4.60
2018-01-20T01:43:48.377Z,4.47
2018-01-20T01:46:16.717Z,4.33
2018-01-20T01:48:45.100Z,6.20
2018-01-20T01:51:12.705Z,2.73
2018-01-20T01:53:40.496Z,5.47
2018-01-20T01:56:08.092Z,3.30
2018-01-20T01:58:35.706Z,3.83
2018-01-20T02:01:03.293Z,4.03
2018-01-20T02:03:30.874Z,4.70
2018-01-20T02:05:58.476Z,3.07
2018-01-20T02:08:26.053Z,4.23
2018-01-20T02:10:53.650Z,4.53
2018-01-20T02:13:21.245Z,4.30
2018-01-20T02:15:49.601Z,4.30
2018-01-20T02:18:17.201Z,2.97
2018-01-20T02:20:44.772Z,2.87
2018-01-20T02:23:12.345Z,4.07
2018-01-20T02:25:40.704Z,3.37
2018-01-20T02:28:08.289Z,4.50
2018-01-20T02:30:35.889Z,3.73
2018-01-20T02:33:04.245Z,4.37
2018-01-20T02:35:31.847Z,3.17
2018-01-20T02:37:59.429Z,2.53
2018-01-20T02:40:27.096Z,2.37
2018-01-20T02:42:54.674Z,2.37
2018-01-20T02:45:22.267Z,3.10
2018-01-20T02:47:50.643Z,3.27
2018-01-20T02:50:18.229Z,3.27
2018-01-20T02:52:45.809Z,2.93
2018-01-20T02:55:13.412Z,2.23
2018-01-20T02:57:40.992Z,3.60
2018-01-20T03:00:09.312Z,3.73
2018-01-20T03:02:36.920Z,3.23
2018-01-20T03:05:05.264Z,2.97
2018-01-20T03:07:32.868Z,7.17
2018-01-20T03:10:01.209Z,4.20
2018-01-20T03:12:28.800Z,3.70
2018-01-20T03:14:57.137Z,4.60
2018-01-20T03:17:24.884Z,3.00
2018-01-20T03:19:52.448Z,2.93
2018-01-20T03:22:20.042Z,4.13
2018-01-20T03:24:47.636Z,3.00
2018-01-20T03:27:15.301Z,5.20
2018-01-20T03:29:42.888Z,6.53
2018-01-20T03:32:10.490Z,3.30
2018-01-20T03:34:38.109Z,4.57
2018-01-20T03:37:05.716Z,4.37
2018-01-20T03:39:33.284Z,4.47
2018-01-20T03:42:00.909Z,4.57
2018-01-20T03:44:28.485Z,5.03
2018-01-20T03:46:56.080Z,8.97
2018-01-20T03:49:23.677Z,7.57
2018-01-20T03:51:51.253Z,3.37
2018-01-20T03:54:18.854Z,5.37
2018-01-20T03:56:47.192Z,4.77
2018-01-20T03:59:14.792Z,3.07
2018-01-20T04:01:43.132Z,5.00
2018-01-20T04:04:10.734Z,6.40
2018-01-20T04:06:39.113Z,5.93
2018-01-20T04:09:07.513Z,4.43
2018-01-20T04:11:35.102Z,3.10
2018-01-20T04:14:02.671Z,4.40
2018-01-20T04:16:32.072Z,4.03
2018-01-20T04:18:59.667Z,4.13
2018-01-20T04:21:28.005Z,3.13
2018-01-20T04:23:55.604Z,5.30
2018-01-20T04:26:24.060Z,3.43
2018-01-20T04:28:51.661Z,2.57
2018-01-20T04:31:19.232Z,5.00
2018-01-20T04:33:46.825Z,4.03
2018-01-20T04:36:14.490Z,2.83
2018-01-20T04:38:42.129Z,3.77
2018-01-20T04:41:09.708Z,5.83
2018-01-20T04:43:37.316Z,9.00
2018-01-20T04:46:05.652Z,5.13
2018-01-20T04:48:33.236Z,5.20
2018-01-20T04:51:01.594Z,3.83
2018-01-20T04:53:29.176Z,5.60
2018-01-20T04:55:57.544Z,3.40
2018-01-20T04:58:25.120Z,2.87
2018-01-20T05:00:53.488Z,3.97
2018-01-20T05:03:21.061Z,4.93
2018-01-20T05:05:49.429Z,4.27
2018-01-20T05:08:17.761Z,6.13
2018-01-20T05:10:45.382Z,2.10
2018-01-20T05:13:13.828Z,4.10
2018-01-20T05:15:41.405Z,4.63
2018-01-20T05:18:09.764Z,2.70
2018-01-20T05:20:37.340Z,3.97
2018-01-20T05:23:05.705Z,3.00
2018-01-20T05:25:33.284Z,2.90
2018-01-20T05:28:01.652Z,4.53
2018-01-20T05:30:29.230Z,4.90
2018-01-20T05:32:57.601Z,1.90
2018-01-20T05:35:25.948Z,5.23
2018-01-20T05:37:54.428Z,2.43
2018-01-20T05:40:22.002Z,1.87
2018-01-20T05:42:49.600Z,4.73
2018-01-20T05:45:17.182Z,2.97
2018-01-20T05:47:44.778Z,2.47
2018-01-20T05:50:12.358Z,2.83
2018-01-20T05:52:40.724Z,4.57
2018-01-20T05:55:08.294Z,4.70
2018-01-20T05:57:35.897Z,4.40
2018-01-20T06:00:03.486Z,3.67
2018-01-20T06:02:31.121Z,3.03
2018-01-20T06:04:58.717Z,1.73
2018-01-20T06:07:26.288Z,3.50
2018-01-20T06:09:53.877Z,4.63
2018-01-20T06:12:21.444Z,4.43
2018-01-20T06:14:49.048Z,6.73
2018-01-20T06:17:16.616Z,5.10
2018-01-20T06:19:44.229Z,4.00
2018-01-20T06:22:11.850Z,3.07
2018-01-20T06:24:39.420Z,2.67
2018-01-20T06:27:07.754Z,3.43
2018-01-20T06:29:35.404Z,4.83
2018-01-20T06:32:02.976Z,2.40
2018-01-20T06:34:30.565Z,3.70
2018-01-20T06:36:58.170Z,3.10
2018-01-20T06:39:25.833Z,4.40
2018-01-20T06:41:53.421Z,5.00
2018-01-20T06:44:21.098Z,3.17
2018-01-20T06:46:48.681Z,3.23
2018-01-20T06:49:17.054Z,3.23
2018-01-20T06:51:44.637Z,3.30
2018-01-20T06:54:12.241Z,5.63
2018-01-20T06:56:39.838Z,3.70
2018-01-20T06:59:08.176Z,5.37
2018-01-20T07:01:35.776Z,6.77
2018-01-20T07:04:04.112Z,4.07
2018-01-20T07:06:32.464Z,3.17
2018-01-20T07:09:00.038Z,4.13
2018-01-20T07:11:27.624Z,6.00
2018-01-20T07:13:55.197Z,4.93
2018-01-20T07:16:22.805Z,6.00
2018-01-20T07:18:50.385Z,3.27
2018-01-20T07:21:18.023Z,4.73
2018-01-20T07:23:45.616Z,12.00
2018-01-20T07:26:13.217Z,50.63
2018-01-20T07:28:40.852Z,4.27
2018-01-20T07:31:08.426Z,4.17
2018-01-20T07:33:36.001Z,3.47
2018-01-20T07:36:04.368Z,11.00
2018-01-20T07:38:32.733Z,3.47
2018-01-20T07:41:00.308Z,5.50
2018-01-20T07:43:28.665Z,5.83
2018-01-20T07:45:56.251Z,5.27
2018-01-20T07:48:24.645Z,3.67
2018-01-20T07:50:52.213Z,2.47
2018-01-20T07:53:19.781Z,3.57
2018-01-20T07:55:47.396Z,4.40
2018-01-20T07:58:14.988Z,1.70
2018-01-20T08:00:42.609Z,2.87
2018-01-20T08:03:10.200Z,3.73
2018-01-20T08:05:38.560Z,5.53
2018-01-20T08:08:06.571Z,4.47
2018-01-20T08:10:34.148Z,4.80
2018-01-20T08:13:01.737Z,4.30
2018-01-20T08:15:29.337Z,6.40
2018-01-20T08:17:56.901Z,6.77
2018-01-20T08:20:24.562Z,4.73
2018-01-20T08:22:52.137Z,4.33
2018-01-20T08:25:19.739Z,7.50
2018-01-20T08:27:47.320Z,5.13
2018-01-20T08:30:15.678Z,9.43
2018-01-20T08:32:43.301Z,6.67
2018-01-20T08:35:10.997Z,4.30
2018-01-20T08:37:38.575Z,6.80
2018-01-20T08:40:06.912Z,3.17
2018-01-20T08:42:34.509Z,4.33
2018-01-20T08:45:02.110Z,3.77
2018-01-20T08:47:29.786Z,6.33
2018-01-20T08:49:57.361Z,10.70
2018-01-20T08:52:24.957Z,4.23
2018-01-20T08:54:53.300Z,6.30
2018-01-20T08:57:21.182Z,5.87
2018-01-20T08:59:48.764Z,3.80
2018-01-20T09:02:17.139Z,4.33
2018-01-20T09:04:45.098Z,4.90
2018-01-20T09:07:12.713Z,4.70
2018-01-20T09:09:40.316Z,4.53
2018-01-20T09:12:07.917Z,3.23
2018-01-20T09:14:35.488Z,5.20
2018-01-20T09:17:03.097Z,5.00
2018-01-20T09:19:30.690Z,7.30
2018-01-20T09:21:58.289Z,6.67
2018-01-20T09:24:25.905Z,5.07
2018-01-20T09:26:53.491Z,3.43
2018-01-20T09:29:21.126Z,5.03
2018-01-20T09:31:49.482Z,4.30
2018-01-20T09:34:17.833Z,5.70
2018-01-20T09:36:45.433Z,7.17
2018-01-20T09:39:13.777Z,4.40
2018-01-20T09:41:41.371Z,3.60
2018-01-20T09:44:09.832Z,3.93
2018-01-20T09:46:37.451Z,7.10
2018-01-20T09:49:05.102Z,5.07
2018-01-20T09:51:32.706Z,4.33
2018-01-20T09:54:01.031Z,3.53
2018-01-20T09:56:28.640Z,5.90
2018-01-20T09:58:56.227Z,8.63
2018-01-20T10:01:24.565Z,6.10
2018-01-20T10:03:52.195Z,5.53
2018-01-20T10:06:19.793Z,4.03
2018-01-20T10:08:47.367Z,8.00
2018-01-20T10:11:14.993Z,9.37
2018-01-20T10:13:42.573Z,7.33
2018-01-20T10:16:10.229Z,5.37
2018-01-20T10:18:37.800Z,5.30
2018-01-20T10:21:05.384Z,5.33
2018-01-20T10:23:33.781Z,8.17
2018-01-20T10:26:02.181Z,4.70
2018-01-20T10:28:29.765Z,7.03
2018-01-20T10:30:57.341Z,5.67
2018-01-20T10:33:24.940Z,5.30
2018-01-20T10:35:53.295Z,6.17
2018-01-20T10:38:20.940Z,3.70
2018-01-20T10:40:48.508Z,7.63
2018-01-20T10:43:16.121Z,4.13
2018-01-20T10:45:43.669Z,6.30
2018-01-20T10:48:11.289Z,5.73
2018-01-20T10:50:38.868Z,8.90
2018-01-20T10:53:07.356Z,6.33
2018-01-20T10:55:35.728Z,8.73
2018-01-20T10:58:04.275Z,10.47
2018-01-20T11:00:31.860Z,5.17
2018-01-20T11:03:00.230Z,9.83
2018-01-20T11:05:27.842Z,5.70
2018-01-20T11:07:55.417Z,4.37
2018-01-20T11:10:23.035Z,7.10
2018-01-20T11:12:51.408Z,12.20
2018-01-20T11:15:19.773Z,6.43
2018-01-20T11:17:47.353Z,5.70
2018-01-20T11:20:15.728Z,7.33
2018-01-20T11:22:44.084Z,7.77
2018-01-20T11:25:11.700Z,8.17
2018-01-20T11:27:39.325Z,4.93
2018-01-20T11:30:07.664Z,5.13
2018-01-20T11:32:35.248Z,4.40
2018-01-20T11:35:02.849Z,4.73
2018-01-20T11:37:30.413Z,5.10
2018-01-20T11:39:58.029Z,5.93
2018-01-20T11:42:25.613Z,4.50
2018-01-20T11:44:53.985Z,3.30
2018-01-20T11:47:22.338Z,3.93
2018-01-20T11:49:49.926Z,3.33
2018-01-20T11:52:18.403Z,4.40
2018-01-20T11:54:46.762Z,3.83
2018-01-20T11:57:14.367Z,2.73
2018-01-20T11:59:41.989Z,4.03
2018-01-20T12:02:10.402Z,3.33
2018-01-20T12:04:37.973Z,3.37
2018-01-20T12:07:05.597Z,3.63
2018-01-20T12:09:33.929Z,3.53
2018-01-20T12:12:01.531Z,4.13
2018-01-20T12:14:29.889Z,3.30
2018-01-20T12:16:57.480Z,3.33
2018-01-20T12:19:25.825Z,4.17
2018-01-20T12:21:53.435Z,4.90
2018-01-20T12:24:21.034Z,3.37
2018-01-20T12:26:48.604Z,2.73
2018-01-20T12:29:16.288Z,3.63
2018-01-20T12:31:44.648Z,4.37
2018-01-20T12:34:12.245Z,3.17
2018-01-20T12:36:39.819Z,3.90
2018-01-20T12:39:07.427Z,3.53
2018-01-20T12:41:35.010Z,4.53
2018-01-20T12:44:03.413Z,3.83
2018-01-20T12:46:31.174Z,5.27
2018-01-20T12:48:58.807Z,4.40
2018-01-20T12:51:26.373Z,6.50
2018-01-20T12:53:54.719Z,3.20
2018-01-20T12:56:22.619Z,3.63
2018-01-20T12:58:51.037Z,5.67
2018-01-20T13:01:18.605Z,6.13
2018-01-20T13:03:46.189Z,4.93
2018-01-20T13:06:13.790Z,4.30
2018-01-20T13:08:42.140Z,4.83
2018-01-20T13:11:09.730Z,4.23
2018-01-20T13:13:37.328Z,3.33
2018-01-20T13:16:04.922Z,5.93
2018-01-20T13:18:32.517Z,3.60
2018-01-20T13:21:00.096Z,3.27
2018-01-20T13:23:27.735Z,5.37
2018-01-20T13:25:55.301Z,8.20
2018-01-20T13:28:22.913Z,4.20
2018-01-20T13:30:50.493Z,6.03
2018-01-20T13:33:18.884Z,6.40
2018-01-20T13:35:47.241Z,4.77
2018-01-20T13:38:15.640Z,7.13
2018-01-20T13:40:43.984Z,5.57
2018-01-20T13:43:11.589Z,3.67
2018-01-20T13:45:39.185Z,4.43
2018-01-20T13:48:06.901Z,3.90
2018-01-20T13:50:35.290Z,6.37
2018-01-20T13:53:02.862Z,4.07
2018-01-20T13:55:32.009Z,4.77
2018-01-20T13:57:59.577Z,7.97
2018-01-20T14:00:27.180Z,7.50
2018-01-20T14:02:54.760Z,9.70
2018-01-20T14:05:22.337Z,6.37
2018-01-20T14:07:49.941Z,7.50
2018-01-20T14:10:17.547Z,3.97
2018-01-20T14:12:45.160Z,3.30
2018-01-20T14:15:13.501Z,5.70
2018-01-20T14:17:41.093Z,4.23
2018-01-20T14:20:09.449Z,5.27
2018-01-20T14:22:37.057Z,5.73
2018-01-20T14:25:05.456Z,4.07
2018-01-20T14:27:33.045Z,4.93
2018-01-20T14:30:00.641Z,6.77
2018-01-20T14:32:28.232Z,8.20
2018-01-20T14:34:55.833Z,10.60
2018-01-20T14:37:23.413Z,8.50
2018-01-20T14:39:53.149Z,5.00
2018-01-20T14:42:20.817Z,4.40
2018-01-20T14:44:48.416Z,7.57
2018-01-20T14:47:16.037Z,6.70
2018-01-20T14:49:43.713Z,6.97
2018-01-20T14:52:11.293Z,11.43
2018-01-20T14:54:38.885Z,17.23
2018-01-20T14:57:07.237Z,11.60
2018-01-20T14:59:34.831Z,10.80
2018-01-20T15:02:03.229Z,10.20
2018-01-20T15:04:30.813Z,6.70
2018-01-20T15:06:58.385Z,7.23
2018-01-20T15:09:26.026Z,15.43
2018-01-20T15:11:53.612Z,12.30
2018-01-20T15:14:21.204Z,14.23
2018-01-20T15:16:49.622Z,12.43
2018-01-20T15:19:17.238Z,14.53
2018-01-20T15:21:45.597Z,12.80
2018-01-20T15:24:13.198Z,21.17
2018-01-20T15:26:41.188Z,14.90
2018-01-20T15:29:08.809Z,13.77
2018-01-20T15:31:37.169Z,12.80
2018-01-20T15:34:04.775Z,7.97
2018-01-20T15:36:32.356Z,11.93
2018-01-20T15:38:59.961Z,9.77
2018-01-20T15:41:28.697Z,11.93
2018-01-20T15:43:56.312Z,10.30
2018-01-20T15:46:24.697Z,13.60
2018-01-20T15:48:53.169Z,8.97
2018-01-20T15:51:21.500Z,9.97
2018-01-20T15:53:49.109Z,10.13
2018-01-20T15:56:17.451Z,13.63
2018-01-20T15:58:45.328Z,11.50
2018-01-20T16:01:12.937Z,14.17
2018-01-20T16:03:40.533Z,26.03
2018-01-20T16:06:08.159Z,22.07
2018-01-20T16:08:35.776Z,12.67
2018-01-20T16:11:03.397Z,15.30
2018-01-20T16:13:30.986Z,26.00
2018-01-20T16:15:58.609Z,52.37
2018-01-20T16:18:26.504Z,10.27
2018-01-20T16:20:54.871Z,10.80
2018-01-20T16:23:22.462Z,15.77
2018-01-20T16:25:50.057Z,19.80
2018-01-20T16:28:17.677Z,10.73
2018-01-20T16:30:45.278Z,11.23
2018-01-20T16:33:13.646Z,9.47
2018-01-20T16:35:41.998Z,9.87
2018-01-20T16:38:09.616Z,31.37
2018-01-20T16:40:37.300Z,65.37
2018-01-20T16:43:04.916Z,13.30
2018-01-20T16:45:33.265Z,11.70
2018-01-20T16:48:00.869Z,9.03
2018-01-20T16:50:28.517Z,10.70
2018-01-20T16:52:56.128Z,12.47
2018-01-20T16:55:24.508Z,11.70
2018-01-20T16:57:52.169Z,10.37
2018-01-20T17:00:20.521Z,8.97
2018-01-20T17:02:48.113Z,9.37
2018-01-20T17:05:15.725Z,8.53
2018-01-20T17:07:43.321Z,8.53
2018-01-20T17:10:10.950Z,9.40
2018-01-20T17:12:38.576Z,9.47
2018-01-20T17:15:06.968Z,8.30
2018-01-20T17:20:09.959Z,8.17
2018-01-20T17:22:37.529Z,8.97
2018-01-20T17:25:05.890Z,6.87
2018-01-20T17:27:33.469Z,8.37
2018-01-20T17:30:01.877Z,8.20
2018-01-20T17:32:29.531Z,7.40
2018-01-20T17:34:57.153Z,6.97
2018-01-20T17:37:24.769Z,5.70
2018-01-20T17:39:52.362Z,6.07
2018-01-20T17:42:19.957Z,5.50
2018-01-20T17:44:47.566Z,6.43
2018-01-20T17:47:15.952Z,5.53
2018-01-20T17:49:43.537Z,10.83
2018-01-20T17:52:11.131Z,20.80
2018-01-20T17:54:38.721Z,10.60
2018-01-20T17:57:06.307Z,8.80
2018-01-20T17:59:33.922Z,6.50
2018-01-20T18:02:01.536Z,6.13
2018-01-20T18:04:29.143Z,6.50
2018-01-20T18:06:56.709Z,6.10
2018-01-20T18:09:24.356Z,5.90
2018-01-20T18:11:51.962Z,5.27
2018-01-20T18:14:19.560Z,4.67
2018-01-20T18:16:47.942Z,7.00
2018-01-20T18:19:15.526Z,6.07
2018-01-20T18:21:43.132Z,8.13
2018-01-20T18:24:10.771Z,6.60
2018-01-20T18:26:38.369Z,9.50
2018-01-20T18:29:06.802Z,7.47
2018-01-20T18:31:34.409Z,6.30
2018-01-20T18:34:02.765Z,6.53
2018-01-20T18:36:30.396Z,5.73
2018-01-20T18:38:57.992Z,6.33
2018-01-20T18:41:25.694Z,6.27
2018-01-20T18:43:54.031Z,6.53
2018-01-20T18:46:21.633Z,8.87
2018-01-20T18:48:49.245Z,8.10
2018-01-20T18:51:16.897Z,10.60
2018-01-20T18:53:44.516Z,13.53
2018-01-20T18:56:12.140Z,15.03
2018-01-20T18:58:39.727Z,13.20
2018-01-20T19:01:07.348Z,21.83
2018-01-20T19:03:34.970Z,22.20
2018-01-20T19:06:02.577Z,11.60
2018-01-20T19:08:30.171Z,11.93
2018-01-20T19:10:57.777Z,18.00
2018-01-20T19:13:25.357Z,17.30
2018-01-20T19:15:52.969Z,19.73
2018-01-20T19:18:20.569Z,16.00
2018-01-20T19:20:48.212Z,9.87
2018-01-20T19:23:15.821Z,10.13
2018-01-20T19:25:43.417Z,7.67
2018-01-20T19:28:11.029Z,6.20
2018-01-20T19:30:38.604Z,6.67
2018-01-20T19:33:07.021Z,9.57
2018-01-20T19:35:34.604Z,18.90
2018-01-20T19:38:02.187Z,20.77
2018-01-20T19:40:30.541Z,17.63
2018-01-20T19:42:58.226Z,16.63
2018-01-20T19:45:25.813Z,12.80
2018-01-20T19:47:53.420Z,11.23
2018-01-20T19:50:21.017Z,7.07
2018-01-20T19:52:49.355Z,9.43
2018-01-20T19:55:17.725Z,11.53
2018-01-20T19:57:45.357Z,10.97
2018-01-20T20:00:13.004Z,9.03
2018-01-20T20:02:41.393Z,8.80
2018-01-20T20:05:08.988Z,9.07
2018-01-20T20:07:36.561Z,10.50
2018-01-20T20:10:04.174Z,13.07
2018-01-20T20:12:31.749Z,13.47
2018-01-20T20:14:59.356Z,12.23
2018-01-20T20:17:26.944Z,9.87
2018-01-20T20:19:54.566Z,15.70
2018-01-20T20:22:22.156Z,15.43
2018-01-20T20:24:50.532Z,22.80
2018-01-20T20:27:18.914Z,19.53
2018-01-20T20:29:47.270Z,17.90
2018-01-20T20:32:14.837Z,17.07
2018-01-20T20:34:42.571Z,16.23
2018-01-20T20:37:10.168Z,18.10
2018-01-20T20:39:37.763Z,20.13
2018-01-20T20:42:05.504Z,14.60
2018-01-20T20:44:33.898Z,13.27
2018-01-20T20:47:01.497Z,13.83
2018-01-20T20:49:29.128Z,11.77
2018-01-20T20:51:56.761Z,12.80
2018-01-20T20:54:25.114Z,11.63
2018-01-20T20:56:52.737Z,10.90
2018-01-20T20:59:20.323Z,11.10
2018-01-20T21:01:47.933Z,9.90
2018-01-20T21:04:15.550Z,11.97
2018-01-20T21:06:43.161Z,10.33
2018-01-20T21:09:10.748Z,10.00
2018-01-20T21:11:38.374Z,12.63
2018-01-20T21:14:05.964Z,12.10
2018-01-20T21:16:33.552Z,13.07
2018-01-20T21:19:01.197Z,13.03
2018-01-20T21:21:28.792Z,16.83
2018-01-20T21:23:57.156Z,19.50
2018-01-20T21:26:24.765Z,17.23
2018-01-20T21:28:52.388Z,15.53
2018-01-20T21:31:19.972Z,18.67
2018-01-20T21:33:48.361Z,18.50
2018-01-20T21:36:15.944Z,17.13
2018-01-20T21:38:43.537Z,15.87
2018-01-20T21:41:11.153Z,17.33
2018-01-20T21:43:38.742Z,16.97
2018-01-20T21:46:06.353Z,17.57
2018-01-20T21:48:34.694Z,16.83
2018-01-20T21:51:02.310Z,19.03
2018-01-20T21:53:29.911Z,19.63
2018-01-20T21:55:57.492Z,19.00
2018-01-20T21:58:25.173Z,16.93
2018-01-20T22:00:53.659Z,20.90
2018-01-20T22:03:21.261Z,23.17
2018-01-20T22:05:48.879Z,23.30
2018-01-20T22:08:16.461Z,23.87
2018-01-20T22:10:44.033Z,28.80
2018-01-20T22:13:11.621Z,27.43
2018-01-20T22:15:39.252Z,27.33
2018-01-20T22:18:06.864Z,24.27
2018-01-20T22:20:35.209Z,27.07
2018-01-20T22:23:02.800Z,26.33
2018-01-20T22:25:31.153Z,25.63
2018-01-20T22:27:58.740Z,23.63
2018-01-20T22:30:27.128Z,23.37
2018-01-20T22:32:55.524Z,23.13
2018-01-20T22:35:23.117Z,25.63
2018-01-20T22:37:50.720Z,26.63
2018-01-20T22:40:19.101Z,27.50
2018-01-20T22:42:47.455Z,30.50
2018-01-20T22:45:15.105Z,27.43
2018-01-20T22:47:42.706Z,25.60
2018-01-20T22:50:11.066Z,24.50
2018-01-20T22:52:39.444Z,27.67
2018-01-20T22:55:07.074Z,28.17
2018-01-20T22:57:34.666Z,27.37
2018-01-20T23:00:03.049Z,26.13
2018-01-20T23:02:31.421Z,29.07
2018-01-20T23:04:59.015Z,25.47
2018-01-20T23:07:26.605Z,25.10
2018-01-20T23:09:54.204Z,25.23
2018-01-20T23:12:22.549Z,22.20
2018-01-20T23:14:50.346Z,18.07
2018-01-20T23:17:17.926Z,20.83
2018-01-20T23:19:46.348Z,10.30
2018-01-20T23:22:14.008Z,11.40
2018-01-20T23:24:41.604Z,8.53
2018-01-20T23:27:09.181Z,5.40
2018-01-20T23:29:37.549Z,4.63
2018-01-20T23:32:05.892Z,4.67
2018-01-20T23:34:33.456Z,4.03
2018-01-20T23:37:01.064Z,2.60
2018-01-20T23:39:28.649Z,1.43
2018-01-20T23:41:56.261Z,1.50
2018-01-20T23:44:23.850Z,2.97
2018-01-20T23:46:51.456Z,1.50
2018-01-20T23:49:19.029Z,8.97
2018-01-20T23:51:46.626Z,3.63
2018-01-20T23:54:14.213Z,3.27
2018-01-20T23:56:41.833Z,5.77
2018-01-20T23:59:10.179Z,2.57
